sensor_id;sensor_type;location;lat;lon;timestamp;P1;durP1;ratioP1;P2;durP2;ratioP2
5710;SDS011;61291;52.524;13.422;2022-08-01T00:01:34;62.67;;;57.37;;
5710;SDS011;61291;52.524;13.422;2022-08-01T00:03:59;59.97;;;54.88;;
5710;SDS011;61291;52.524;13.422;2022-08-01T00:06:25;63.63;;;58.07;;
5710;SDS011;61291;52.524;13.422;2022-08-01T00:08:50;60.00;;;55.30;;
5710;SDS011;61291;52.524;13.422;2022-08-01T00:11:16;59.33;;;54.73;;
5710;SDS011;61291;52.524;13.422;2022-08-01T00:13:42;61.20;;;56.50;;
5710;SDS011;61291;52.524;13.422;2022-08-01T00:16:07;61.50;;;56.50;;
5710;SDS011;61291;52.524;13.422;2022-08-01T00:18:33;61.57;;;56.67;;
5710;SDS011;61291;52.524;13.422;2022-08-01T00:21:00;61.00;;;56.30;;
5710;SDS011;61291;52.524;13.422;2022-08-01T00:23:26;60.53;;;55.63;;
5710;SDS011;61291;52.524;13.422;2022-08-01T00:25:52;60.83;;;56.33;;
5710;SDS011;61291;52.524;13.422;2022-08-01T00:28:17;61.07;;;55.97;;
5710;SDS011;61291;52.524;13.422;2022-08-01T00:30:43;59.70;;;54.90;;
5710;SDS011;61291;52.524;13.422;2022-08-01T00:33:08;60.40;;;55.60;;
5710;SDS011;61291;52.524;13.422;2022-08-01T00:35:34;59.10;;;54.20;;
5710;SDS011;61291;52.524;13.422;2022-08-01T00:37:59;59.70;;;55.20;;
5710;SDS011;61291;52.524;13.422;2022-08-01T00:40:25;61.13;;;56.53;;
5710;SDS011;61291;52.524;13.422;2022-08-01T00:42:50;56.80;;;52.40;;
5710;SDS011;61291;52.524;13.422;2022-08-01T00:45:16;59.40;;;54.60;;
5710;SDS011;61291;52.524;13.422;2022-08-01T00:47:41;58.90;;;54.20;;
5710;SDS011;61291;52.524;13.422;2022-08-01T00:50:07;57.47;;;52.97;;
5710;SDS011;61291;52.524;13.422;2022-08-01T00:52:34;60.13;;;55.13;;
5710;SDS011;61291;52.524;13.422;2022-08-01T00:55:03;57.35;;;52.55;;
5710;SDS011;61291;52.524;13.422;2022-08-01T00:57:29;59.20;;;54.23;;
5710;SDS011;61291;52.524;13.422;2022-08-01T00:59:55;59.30;;;54.50;;
5710;SDS011;61291;52.524;13.422;2022-08-01T01:02:21;58.47;;;53.90;;
5710;SDS011;61291;52.524;13.422;2022-08-01T01:04:46;59.37;;;54.47;;
5710;SDS011;61291;52.524;13.422;2022-08-01T01:07:24;60.80;;;56.00;;
5710;SDS011;61291;52.524;13.422;2022-08-01T01:09:59;58.60;;;53.80;;
5710;SDS011;61291;52.524;13.422;2022-08-01T01:15:17;61.17;;;56.17;;
5710;SDS011;61291;52.524;13.422;2022-08-01T01:18:09;60.70;;;55.70;;
5710;SDS011;61291;52.524;13.422;2022-08-01T01:20:42;60.70;;;55.60;;
5710;SDS011;61291;52.524;13.422;2022-08-01T01:23:21;54.50;;;50.10;;
5710;SDS011;61291;52.524;13.422;2022-08-01T01:29:04;58.60;;;54.00;;
5710;SDS011;61291;52.524;13.422;2022-08-01T01:32:09;59.77;;;55.03;;
5710;SDS011;61291;52.524;13.422;2022-08-01T01:34:47;60.63;;;55.47;;
5710;SDS011;61291;52.524;13.422;2022-08-01T01:37:15;58.90;;;53.90;;
5710;SDS011;61291;52.524;13.422;2022-08-01T01:39:43;60.73;;;55.70;;
5710;SDS011;61291;52.524;13.422;2022-08-01T01:42:11;60.17;;;55.07;;
5710;SDS011;61291;52.524;13.422;2022-08-01T01:44:37;59.67;;;54.77;;
5710;SDS011;61291;52.524;13.422;2022-08-01T01:47:04;58.93;;;53.87;;
5710;SDS011;61291;52.524;13.422;2022-08-01T01:49:30;58.47;;;53.87;;
5710;SDS011;61291;52.524;13.422;2022-08-01T01:51:57;59.07;;;54.20;;
5710;SDS011;61291;52.524;13.422;2022-08-01T01:54:28;57.33;;;52.90;;
5710;SDS011;61291;52.524;13.422;2022-08-01T01:56:56;57.80;;;53.20;;
5710;SDS011;61291;52.524;13.422;2022-08-01T01:59:24;57.53;;;52.93;;
5710;SDS011;61291;52.524;13.422;2022-08-01T02:01:53;53.50;;;49.00;;
5710;SDS011;61291;52.524;13.422;2022-08-01T02:04:22;59.47;;;54.70;;
5710;SDS011;61291;52.524;13.422;2022-08-01T02:06:49;59.80;;;55.40;;
5710;SDS011;61291;52.524;13.422;2022-08-01T02:09:17;60.93;;;55.90;;
5710;SDS011;61291;52.524;13.422;2022-08-01T02:11:44;59.63;;;54.90;;
5710;SDS011;61291;52.524;13.422;2022-08-01T02:14:12;57.40;;;52.90;;
5710;SDS011;61291;52.524;13.422;2022-08-01T02:16:39;61.10;;;56.47;;
5710;SDS011;61291;52.524;13.422;2022-08-01T02:19:07;60.67;;;55.70;;
5710;SDS011;61291;52.524;13.422;2022-08-01T02:27:06;63.37;;;58.27;;
5710;SDS011;61291;52.524;13.422;2022-08-01T02:29:40;65.97;;;60.73;;
5710;SDS011;61291;52.524;13.422;2022-08-01T02:32:09;64.83;;;59.20;;
5710;SDS011;61291;52.524;13.422;2022-08-01T02:34:39;61.30;;;56.50;;
5710;SDS011;61291;52.524;13.422;2022-08-01T02:37:06;65.13;;;59.30;;
5710;SDS011;61291;52.524;13.422;2022-08-01T02:39:32;63.60;;;58.80;;
5710;SDS011;61291;52.524;13.422;2022-08-01T02:42:02;57.30;;;52.90;;
5710;SDS011;61291;52.524;13.422;2022-08-01T02:44:31;61.73;;;57.23;;
5710;SDS011;61291;52.524;13.422;2022-08-01T02:47:00;64.40;;;59.27;;
5710;SDS011;61291;52.524;13.422;2022-08-01T02:49:28;61.90;;;57.20;;
5710;SDS011;61291;52.524;13.422;2022-08-01T02:51:57;65.67;;;60.47;;
5710;SDS011;61291;52.524;13.422;2022-08-01T02:54:26;69.50;;;64.57;;
5710;SDS011;61291;52.524;13.422;2022-08-01T02:56:52;64.57;;;58.90;;
5710;SDS011;61291;52.524;13.422;2022-08-01T02:59:20;64.43;;;59.20;;
5710;SDS011;61291;52.524;13.422;2022-08-01T03:01:50;62.97;;;58.27;;
5710;SDS011;61291;52.524;13.422;2022-08-01T03:04:19;65.10;;;60.13;;
5710;SDS011;61291;52.524;13.422;2022-08-01T03:06:47;61.20;;;56.80;;
5710;SDS011;61291;52.524;13.422;2022-08-01T03:09:13;64.53;;;59.60;;
5710;SDS011;61291;52.524;13.422;2022-08-01T03:11:41;65.40;;;60.30;;
5710;SDS011;61291;52.524;13.422;2022-08-01T03:14:08;65.73;;;61.03;;
5710;SDS011;61291;52.524;13.422;2022-08-01T03:16:36;64.30;;;59.60;;
5710;SDS011;61291;52.524;13.422;2022-08-01T03:19:04;63.00;;;58.23;;
5710;SDS011;61291;52.524;13.422;2022-08-01T03:21:32;67.90;;;62.80;;
5710;SDS011;61291;52.524;13.422;2022-08-01T03:23:59;63.30;;;58.23;;
5710;SDS011;61291;52.524;13.422;2022-08-01T03:26:30;62.73;;;57.93;;
5710;SDS011;61291;52.524;13.422;2022-08-01T03:29:02;63.30;;;58.40;;
5710;SDS011;61291;52.524;13.422;2022-08-01T03:31:35;69.30;;;63.77;;
5710;SDS011;61291;52.524;13.422;2022-08-01T03:34:03;61.95;;;57.15;;
5710;SDS011;61291;52.524;13.422;2022-08-01T03:36:29;67.10;;;61.60;;
5710;SDS011;61291;52.524;13.422;2022-08-01T03:38:57;62.57;;;57.50;;
5710;SDS011;61291;52.524;13.422;2022-08-01T03:41:28;64.10;;;59.20;;
5710;SDS011;61291;52.524;13.422;2022-08-01T03:44:00;60.47;;;55.77;;
5710;SDS011;61291;52.524;13.422;2022-08-01T03:46:33;63.67;;;59.03;;
5710;SDS011;61291;52.524;13.422;2022-08-01T03:49:13;62.00;;;57.30;;
5710;SDS011;61291;52.524;13.422;2022-08-01T03:51:42;62.83;;;57.80;;
5710;SDS011;61291;52.524;13.422;2022-08-01T03:54:12;62.27;;;57.57;;
5710;SDS011;61291;52.524;13.422;2022-08-01T03:56:40;59.80;;;55.10;;
5710;SDS011;61291;52.524;13.422;2022-08-01T03:59:08;63.83;;;58.80;;
5710;SDS011;61291;52.524;13.422;2022-08-01T04:01:34;59.77;;;55.00;;
5710;SDS011;61291;52.524;13.422;2022-08-01T04:04:01;55.40;;;50.60;;
5710;SDS011;61291;52.524;13.422;2022-08-01T04:06:26;61.50;;;56.40;;
5710;SDS011;61291;52.524;13.422;2022-08-01T04:08:52;60.53;;;55.63;;
5710;SDS011;61291;52.524;13.422;2022-08-01T04:11:25;60.80;;;55.70;;
5710;SDS011;61291;52.524;13.422;2022-08-01T04:13:52;60.57;;;55.57;;
5710;SDS011;61291;52.524;13.422;2022-08-01T04:16:19;60.37;;;55.10;;
5710;SDS011;61291;52.524;13.422;2022-08-01T04:18:45;63.43;;;58.03;;
5710;SDS011;61291;52.524;13.422;2022-08-01T04:21:11;62.77;;;57.40;;
5710;SDS011;61291;52.524;13.422;2022-08-01T04:23:38;63.67;;;58.17;;
5710;SDS011;61291;52.524;13.422;2022-08-01T04:26:06;64.87;;;59.20;;
5710;SDS011;61291;52.524;13.422;2022-08-01T04:28:34;63.00;;;57.50;;
5710;SDS011;61291;52.524;13.422;2022-08-01T04:31:01;70.17;;;64.00;;
5710;SDS011;61291;52.524;13.422;2022-08-01T04:33:31;65.37;;;59.97;;
5710;SDS011;61291;52.524;13.422;2022-08-01T04:36:01;67.10;;;61.43;;
5710;SDS011;61291;52.524;13.422;2022-08-01T04:38:28;65.23;;;59.67;;
5710;SDS011;61291;52.524;13.422;2022-08-01T04:40:56;62.30;;;57.20;;
5710;SDS011;61291;52.524;13.422;2022-08-01T04:43:22;64.82;;;59.15;;
5710;SDS011;61291;52.524;13.422;2022-08-01T04:45:48;64.30;;;58.67;;
5710;SDS011;61291;52.524;13.422;2022-08-01T04:48:16;69.33;;;63.40;;
5710;SDS011;61291;52.524;13.422;2022-08-01T04:50:44;69.87;;;63.67;;
5710;SDS011;61291;52.524;13.422;2022-08-01T04:53:17;69.30;;;63.03;;
5710;SDS011;61291;52.524;13.422;2022-08-01T04:55:46;62.27;;;56.57;;
5710;SDS011;61291;52.524;13.422;2022-08-01T04:58:12;69.03;;;62.77;;
5710;SDS011;61291;52.524;13.422;2022-08-01T05:00:39;72.17;;;66.27;;
5710;SDS011;61291;52.524;13.422;2022-08-01T05:03:05;70.20;;;63.73;;
5710;SDS011;61291;52.524;13.422;2022-08-01T05:05:30;71.80;;;65.90;;
5710;SDS011;61291;52.524;13.422;2022-08-01T05:07:56;67.97;;;62.07;;
5710;SDS011;61291;52.524;13.422;2022-08-01T05:10:22;71.07;;;64.97;;
5710;SDS011;61291;52.524;13.422;2022-08-01T05:12:47;68.60;;;62.23;;
5710;SDS011;61291;52.524;13.422;2022-08-01T05:15:13;76.20;;;69.07;;
5710;SDS011;61291;52.524;13.422;2022-08-01T05:17:38;76.00;;;69.70;;
5710;SDS011;61291;52.524;13.422;2022-08-01T05:20:04;78.87;;;72.47;;
5710;SDS011;61291;52.524;13.422;2022-08-01T05:22:31;75.13;;;68.60;;
5710;SDS011;61291;52.524;13.422;2022-08-01T05:24:57;80.07;;;72.37;;
5710;SDS011;61291;52.524;13.422;2022-08-01T05:27:22;78.63;;;72.47;;
5710;SDS011;61291;52.524;13.422;2022-08-01T05:29:47;73.53;;;67.23;;
5710;SDS011;61291;52.524;13.422;2022-08-01T05:32:13;78.50;;;71.47;;
5710;SDS011;61291;52.524;13.422;2022-08-01T05:34:39;73.30;;;67.07;;
5710;SDS011;61291;52.524;13.422;2022-08-01T05:37:04;76.13;;;69.00;;
5710;SDS011;61291;52.524;13.422;2022-08-01T05:39:29;80.27;;;73.87;;
5710;SDS011;61291;52.524;13.422;2022-08-01T05:41:55;76.73;;;70.13;;
5710;SDS011;61291;52.524;13.422;2022-08-01T05:44:21;75.80;;;68.90;;
5710;SDS011;61291;52.524;13.422;2022-08-01T05:46:46;66.13;;;60.20;;
5710;SDS011;61291;52.524;13.422;2022-08-01T05:49:12;68.30;;;63.00;;
5710;SDS011;61291;52.524;13.422;2022-08-01T05:51:38;70.40;;;65.10;;
5710;SDS011;61291;52.524;13.422;2022-08-01T05:54:04;69.67;;;64.37;;
5710;SDS011;61291;52.524;13.422;2022-08-01T05:56:29;71.83;;;65.90;;
5710;SDS011;61291;52.524;13.422;2022-08-01T05:58:55;74.53;;;68.50;;
5710;SDS011;61291;52.524;13.422;2022-08-01T06:01:20;70.27;;;64.93;;
5710;SDS011;61291;52.524;13.422;2022-08-01T06:03:46;67.37;;;62.20;;
5710;SDS011;61291;52.524;13.422;2022-08-01T06:06:11;69.97;;;63.70;;
5710;SDS011;61291;52.524;13.422;2022-08-01T06:08:38;64.10;;;58.70;;
5710;SDS011;61291;52.524;13.422;2022-08-01T06:11:04;69.23;;;63.67;;
5710;SDS011;61291;52.524;13.422;2022-08-01T06:13:30;73.17;;;67.50;;
5710;SDS011;61291;52.524;13.422;2022-08-01T06:15:55;71.03;;;65.63;;
5710;SDS011;61291;52.524;13.422;2022-08-01T06:18:21;64.27;;;59.27;;
5710;SDS011;61291;52.524;13.422;2022-08-01T06:20:47;73.13;;;66.53;;
5710;SDS011;61291;52.524;13.422;2022-08-01T06:23:13;66.60;;;61.60;;
5710;SDS011;61291;52.524;13.422;2022-08-01T06:25:41;69.50;;;64.00;;
5710;SDS011;61291;52.524;13.422;2022-08-01T06:28:07;67.73;;;62.43;;
5710;SDS011;61291;52.524;13.422;2022-08-01T06:30:32;69.23;;;63.87;;
5710;SDS011;61291;52.524;13.422;2022-08-01T06:32:58;67.37;;;62.50;;
5710;SDS011;61291;52.524;13.422;2022-08-01T06:35:25;61.77;;;56.93;;
5710;SDS011;61291;52.524;13.422;2022-08-01T06:37:51;61.80;;;57.03;;
5710;SDS011;61291;52.524;13.422;2022-08-01T06:40:16;64.43;;;59.53;;
5710;SDS011;61291;52.524;13.422;2022-08-01T06:42:43;63.50;;;58.50;;
5710;SDS011;61291;52.524;13.422;2022-08-01T06:45:10;67.17;;;62.00;;
5710;SDS011;61291;52.524;13.422;2022-08-01T06:47:37;65.07;;;60.07;;
5710;SDS011;61291;52.524;13.422;2022-08-01T06:50:04;58.30;;;53.90;;
5710;SDS011;61291;52.524;13.422;2022-08-01T06:52:31;60.30;;;55.50;;
5710;SDS011;61291;52.524;13.422;2022-08-01T06:54:56;58.70;;;54.30;;
5710;SDS011;61291;52.524;13.422;2022-08-01T06:57:22;57.63;;;53.23;;
5710;SDS011;61291;52.524;13.422;2022-08-01T06:59:47;61.87;;;56.77;;
5710;SDS011;61291;52.524;13.422;2022-08-01T07:02:13;67.40;;;62.30;;
5710;SDS011;61291;52.524;13.422;2022-08-01T07:04:39;67.83;;;62.20;;
5710;SDS011;61291;52.524;13.422;2022-08-01T07:07:04;64.00;;;59.00;;
5710;SDS011;61291;52.524;13.422;2022-08-01T07:09:30;70.67;;;65.63;;
5710;SDS011;61291;52.524;13.422;2022-08-01T07:11:56;61.57;;;56.27;;
5710;SDS011;61291;52.524;13.422;2022-08-01T07:14:21;65.70;;;61.10;;
5710;SDS011;61291;52.524;13.422;2022-08-01T07:16:47;65.47;;;60.40;;
5710;SDS011;61291;52.524;13.422;2022-08-01T07:19:13;61.90;;;57.27;;
5710;SDS011;61291;52.524;13.422;2022-08-01T07:21:38;64.73;;;59.47;;
5710;SDS011;61291;52.524;13.422;2022-08-01T07:24:05;62.63;;;57.73;;
5710;SDS011;61291;52.524;13.422;2022-08-01T07:26:31;65.33;;;60.83;;
5710;SDS011;61291;52.524;13.422;2022-08-01T07:28:57;65.07;;;60.50;;
5710;SDS011;61291;52.524;13.422;2022-08-01T07:31:22;59.83;;;55.13;;
5710;SDS011;61291;52.524;13.422;2022-08-01T07:33:48;59.47;;;55.20;;
5710;SDS011;61291;52.524;13.422;2022-08-01T07:36:15;60.17;;;55.57;;
5710;SDS011;61291;52.524;13.422;2022-08-01T07:38:41;69.77;;;64.87;;
5710;SDS011;61291;52.524;13.422;2022-08-01T07:41:06;66.60;;;61.20;;
5710;SDS011;61291;52.524;13.422;2022-08-01T07:43:32;74.60;;;68.63;;
5710;SDS011;61291;52.524;13.422;2022-08-01T07:45:57;73.27;;;67.87;;
5710;SDS011;61291;52.524;13.422;2022-08-01T07:48:23;66.50;;;60.73;;
5710;SDS011;61291;52.524;13.422;2022-08-01T07:50:50;71.60;;;66.00;;
5710;SDS011;61291;52.524;13.422;2022-08-01T07:53:16;66.50;;;61.30;;
5710;SDS011;61291;52.524;13.422;2022-08-01T07:55:41;70.30;;;64.90;;
5710;SDS011;61291;52.524;13.422;2022-08-01T07:58:07;63.80;;;58.70;;
5710;SDS011;61291;52.524;13.422;2022-08-01T08:00:33;65.63;;;60.92;;
5710;SDS011;61291;52.524;13.422;2022-08-01T08:02:58;63.73;;;59.03;;
5710;SDS011;61291;52.524;13.422;2022-08-01T08:05:24;60.27;;;55.87;;
5710;SDS011;61291;52.524;13.422;2022-08-01T08:07:53;68.77;;;63.07;;
5710;SDS011;61291;52.524;13.422;2022-08-01T08:10:19;63.80;;;58.90;;
5710;SDS011;61291;52.524;13.422;2022-08-01T08:12:44;68.47;;;63.30;;
5710;SDS011;61291;52.524;13.422;2022-08-01T08:15:11;62.10;;;57.10;;
5710;SDS011;61291;52.524;13.422;2022-08-01T08:17:37;63.77;;;58.87;;
5710;SDS011;61291;52.524;13.422;2022-08-01T08:20:03;64.27;;;59.00;;
5710;SDS011;61291;52.524;13.422;2022-08-01T08:22:30;62.90;;;58.00;;
5710;SDS011;61291;52.524;13.422;2022-08-01T08:24:56;65.03;;;59.93;;
5710;SDS011;61291;52.524;13.422;2022-08-01T08:27:21;59.87;;;54.77;;
5710;SDS011;61291;52.524;13.422;2022-08-01T08:29:47;62.30;;;57.27;;
5710;SDS011;61291;52.524;13.422;2022-08-01T08:32:12;60.90;;;56.00;;
5710;SDS011;61291;52.524;13.422;2022-08-01T08:34:38;62.17;;;57.17;;
5710;SDS011;61291;52.524;13.422;2022-08-01T08:37:03;62.97;;;58.00;;
5710;SDS011;61291;52.524;13.422;2022-08-01T08:39:29;65.00;;;59.90;;
5710;SDS011;61291;52.524;13.422;2022-08-01T08:41:56;57.78;;;53.28;;
5710;SDS011;61291;52.524;13.422;2022-08-01T08:44:24;64.43;;;59.10;;
5710;SDS011;61291;52.524;13.422;2022-08-01T08:46:50;68.23;;;62.80;;
5710;SDS011;61291;52.524;13.422;2022-08-01T08:49:18;62.50;;;57.30;;
5710;SDS011;61291;52.524;13.422;2022-08-01T08:51:47;63.30;;;57.80;;
5710;SDS011;61291;52.524;13.422;2022-08-01T08:54:15;57.93;;;53.23;;
5710;SDS011;61291;52.524;13.422;2022-08-01T08:56:43;57.53;;;53.13;;
5710;SDS011;61291;52.524;13.422;2022-08-01T08:59:11;61.50;;;56.50;;
5710;SDS011;61291;52.524;13.422;2022-08-01T09:01:40;55.97;;;51.63;;
5710;SDS011;61291;52.524;13.422;2022-08-01T09:04:06;54.13;;;49.70;;
5710;SDS011;61291;52.524;13.422;2022-08-01T09:06:32;59.40;;;54.60;;
5710;SDS011;61291;52.524;13.422;2022-08-01T09:08:58;55.73;;;51.53;;
5710;SDS011;61291;52.524;13.422;2022-08-01T09:11:24;54.23;;;49.83;;
5710;SDS011;61291;52.524;13.422;2022-08-01T09:14:09;54.53;;;49.90;;
5710;SDS011;61291;52.524;13.422;2022-08-01T09:16:41;56.37;;;52.13;;
5710;SDS011;61291;52.524;13.422;2022-08-01T09:19:14;48.92;;;44.92;;
5710;SDS011;61291;52.524;13.422;2022-08-01T09:21:55;52.63;;;48.53;;
5710;SDS011;61291;52.524;13.422;2022-08-01T09:24:26;52.73;;;48.10;;
5710;SDS011;61291;52.524;13.422;2022-08-01T09:26:53;51.87;;;47.87;;
5710;SDS011;61291;52.524;13.422;2022-08-01T09:29:20;53.97;;;49.90;;
5710;SDS011;61291;52.524;13.422;2022-08-01T09:31:53;60.07;;;54.80;;
5710;SDS011;61291;52.524;13.422;2022-08-01T09:34:24;53.47;;;49.23;;
5710;SDS011;61291;52.524;13.422;2022-08-01T09:36:58;53.70;;;49.60;;
5710;SDS011;61291;52.524;13.422;2022-08-01T09:39:26;55.50;;;50.43;;
5710;SDS011;61291;52.524;13.422;2022-08-01T09:41:57;53.20;;;49.00;;
5710;SDS011;61291;52.524;13.422;2022-08-01T09:44:43;56.80;;;52.80;;
5710;SDS011;61291;52.524;13.422;2022-08-01T09:47:09;58.23;;;53.60;;
5710;SDS011;61291;52.524;13.422;2022-08-01T09:49:37;57.20;;;52.80;;
5710;SDS011;61291;52.524;13.422;2022-08-01T09:52:14;59.20;;;54.70;;
5710;SDS011;61291;52.524;13.422;2022-08-01T09:54:42;57.57;;;52.83;;
5710;SDS011;61291;52.524;13.422;2022-08-01T09:57:18;52.25;;;48.25;;
5710;SDS011;61291;52.524;13.422;2022-08-01T09:59:46;60.27;;;55.00;;
5710;SDS011;61291;52.524;13.422;2022-08-01T10:02:14;53.77;;;49.67;;
5710;SDS011;61291;52.524;13.422;2022-08-01T10:04:52;55.97;;;51.23;;
5710;SDS011;61291;52.524;13.422;2022-08-01T10:07:18;57.17;;;52.47;;
5710;SDS011;61291;52.524;13.422;2022-08-01T10:09:44;56.10;;;51.50;;
5710;SDS011;61291;52.524;13.422;2022-08-01T10:12:12;60.93;;;56.13;;
5710;SDS011;61291;52.524;13.422;2022-08-01T10:14:44;59.47;;;54.97;;
5710;SDS011;61291;52.524;13.422;2022-08-01T10:17:14;56.10;;;51.73;;
5710;SDS011;61291;52.524;13.422;2022-08-01T10:19:41;58.67;;;53.73;;
5710;SDS011;61291;52.524;13.422;2022-08-01T10:22:08;59.43;;;54.47;;
5710;SDS011;61291;52.524;13.422;2022-08-01T10:24:36;57.07;;;52.67;;
5710;SDS011;61291;52.524;13.422;2022-08-01T10:27:07;58.03;;;52.63;;
5710;SDS011;61291;52.524;13.422;2022-08-01T10:29:35;55.20;;;50.90;;
5710;SDS011;61291;52.524;13.422;2022-08-01T10:32:07;56.13;;;51.83;;
5710;SDS011;61291;52.524;13.422;2022-08-01T10:34:34;58.23;;;53.80;;
5710;SDS011;61291;52.524;13.422;2022-08-01T10:37:02;59.80;;;55.40;;
5710;SDS011;61291;52.524;13.422;2022-08-01T10:39:30;56.20;;;51.37;;
5710;SDS011;61291;52.524;13.422;2022-08-01T10:41:56;56.87;;;52.60;;
5710;SDS011;61291;52.524;13.422;2022-08-01T10:44:22;55.50;;;51.40;;
5710;SDS011;61291;52.524;13.422;2022-08-01T10:46:50;58.67;;;54.57;;
5710;SDS011;61291;52.524;13.422;2022-08-01T10:49:20;61.07;;;56.87;;
5710;SDS011;61291;52.524;13.422;2022-08-01T10:51:50;58.57;;;54.17;;
5710;SDS011;61291;52.524;13.422;2022-08-01T10:54:15;60.37;;;55.97;;
5710;SDS011;61291;52.524;13.422;2022-08-01T10:56:48;58.00;;;53.40;;
5710;SDS011;61291;52.524;13.422;2022-08-01T10:59:36;56.90;;;52.50;;
5710;SDS011;61291;52.524;13.422;2022-08-01T11:02:11;59.10;;;54.57;;
5710;SDS011;61291;52.524;13.422;2022-08-01T11:05:01;58.57;;;54.00;;
5710;SDS011;61291;52.524;13.422;2022-08-01T11:07:42;59.23;;;54.93;;
5710;SDS011;61291;52.524;13.422;2022-08-01T11:10:19;61.70;;;56.93;;
5710;SDS011;61291;52.524;13.422;2022-08-01T11:12:54;57.60;;;53.00;;
5710;SDS011;61291;52.524;13.422;2022-08-01T11:15:20;56.20;;;51.80;;
5710;SDS011;61291;52.524;13.422;2022-08-01T11:17:53;57.30;;;53.00;;
5710;SDS011;61291;52.524;13.422;2022-08-01T11:20:21;55.47;;;51.03;;
5710;SDS011;61291;52.524;13.422;2022-08-01T11:25:25;51.55;;;47.60;;
5710;SDS011;61291;52.524;13.422;2022-08-01T11:30:39;59.07;;;54.60;;
5710;SDS011;61291;52.524;13.422;2022-08-01T11:33:05;55.70;;;51.43;;
5710;SDS011;61291;52.524;13.422;2022-08-01T11:35:31;56.60;;;52.10;;
5710;SDS011;61291;52.524;13.422;2022-08-01T11:37:57;60.77;;;56.17;;
5710;SDS011;61291;52.524;13.422;2022-08-01T11:44:02;58.27;;;53.87;;
5710;SDS011;61291;52.524;13.422;2022-08-01T11:49:33;60.80;;;55.70;;
5710;SDS011;61291;52.524;13.422;2022-08-01T11:52:06;59.13;;;54.58;;
5710;SDS011;61291;52.524;13.422;2022-08-01T11:54:43;59.13;;;54.63;;
5710;SDS011;61291;52.524;13.422;2022-08-01T11:59:43;58.70;;;53.90;;
5710;SDS011;61291;52.524;13.422;2022-08-01T12:02:22;55.80;;;51.07;;
5710;SDS011;61291;52.524;13.422;2022-08-01T12:04:57;53.83;;;49.43;;
5710;SDS011;61291;52.524;13.422;2022-08-01T12:07:25;55.53;;;50.47;;
5710;SDS011;61291;52.524;13.422;2022-08-01T12:09:56;59.27;;;54.47;;
5710;SDS011;61291;52.524;13.422;2022-08-01T12:12:37;58.07;;;52.57;;
5710;SDS011;61291;52.524;13.422;2022-08-01T12:15:11;58.67;;;53.77;;
5710;SDS011;61291;52.524;13.422;2022-08-01T12:17:39;56.50;;;51.70;;
5710;SDS011;61291;52.524;13.422;2022-08-01T12:20:13;58.00;;;53.00;;
5710;SDS011;61291;52.524;13.422;2022-08-01T12:22:40;55.80;;;51.50;;
5710;SDS011;61291;52.524;13.422;2022-08-01T12:25:10;60.33;;;54.97;;
5710;SDS011;61291;52.524;13.422;2022-08-01T12:27:41;54.33;;;49.23;;
5710;SDS011;61291;52.524;13.422;2022-08-01T12:30:08;57.57;;;53.07;;
5710;SDS011;61291;52.524;13.422;2022-08-01T12:32:39;57.60;;;53.07;;
5710;SDS011;61291;52.524;13.422;2022-08-01T12:37:37;58.00;;;53.00;;
5710;SDS011;61291;52.524;13.422;2022-08-01T12:40:12;57.00;;;52.20;;
5710;SDS011;61291;52.524;13.422;2022-08-01T12:42:49;56.07;;;51.30;;
5710;SDS011;61291;52.524;13.422;2022-08-01T12:45:17;55.60;;;50.97;;
5710;SDS011;61291;52.524;13.422;2022-08-01T12:47:45;58.67;;;54.13;;
5710;SDS011;61291;52.524;13.422;2022-08-01T12:50:14;58.63;;;53.70;;
5710;SDS011;61291;52.524;13.422;2022-08-01T12:52:43;55.20;;;50.40;;
5710;SDS011;61291;52.524;13.422;2022-08-01T12:55:19;53.73;;;49.13;;
5710;SDS011;61291;52.524;13.422;2022-08-01T12:58:05;51.67;;;47.37;;
5710;SDS011;61291;52.524;13.422;2022-08-01T13:00:32;54.77;;;49.90;;
5710;SDS011;61291;52.524;13.422;2022-08-01T13:03:03;54.53;;;49.67;;
5710;SDS011;61291;52.524;13.422;2022-08-01T13:05:46;55.20;;;50.40;;
5710;SDS011;61291;52.524;13.422;2022-08-01T13:08:20;55.87;;;51.30;;
5710;SDS011;61291;52.524;13.422;2022-08-01T13:11:10;55.30;;;50.87;;
5710;SDS011;61291;52.524;13.422;2022-08-01T13:13:50;50.47;;;46.37;;
5710;SDS011;61291;52.524;13.422;2022-08-01T13:16:17;57.07;;;52.50;;
5710;SDS011;61291;52.524;13.422;2022-08-01T13:18:48;58.37;;;52.90;;
5710;SDS011;61291;52.524;13.422;2022-08-01T13:21:16;63.97;;;59.17;;
5710;SDS011;61291;52.524;13.422;2022-08-01T13:24:03;57.43;;;53.00;;
5710;SDS011;61291;52.524;13.422;2022-08-01T13:26:39;59.60;;;55.00;;
5710;SDS011;61291;52.524;13.422;2022-08-01T13:29:15;62.53;;;56.90;;
5710;SDS011;61291;52.524;13.422;2022-08-01T13:31:43;60.17;;;55.17;;
5710;SDS011;61291;52.524;13.422;2022-08-01T13:34:09;61.67;;;56.70;;
5710;SDS011;61291;52.524;13.422;2022-08-01T13:36:35;59.30;;;54.70;;
5710;SDS011;61291;52.524;13.422;2022-08-01T13:39:02;58.00;;;53.80;;
5710;SDS011;61291;52.524;13.422;2022-08-01T13:41:47;56.40;;;52.10;;
5710;SDS011;61291;52.524;13.422;2022-08-01T13:44:12;57.20;;;52.40;;
5710;SDS011;61291;52.524;13.422;2022-08-01T13:46:39;58.97;;;54.83;;
5710;SDS011;61291;52.524;13.422;2022-08-01T13:49:06;58.10;;;53.60;;
5710;SDS011;61291;52.524;13.422;2022-08-01T13:51:32;59.90;;;55.30;;
5710;SDS011;61291;52.524;13.422;2022-08-01T13:53:58;52.72;;;48.63;;
5710;SDS011;61291;52.524;13.422;2022-08-01T13:56:24;58.43;;;53.83;;
5710;SDS011;61291;52.524;13.422;2022-08-01T13:58:51;64.37;;;59.60;;
5710;SDS011;61291;52.524;13.422;2022-08-01T14:01:17;61.97;;;57.43;;
5710;SDS011;61291;52.524;13.422;2022-08-01T14:03:42;58.43;;;53.90;;
5710;SDS011;61291;52.524;13.422;2022-08-01T14:06:08;60.00;;;55.30;;
5710;SDS011;61291;52.524;13.422;2022-08-01T14:08:33;59.77;;;54.90;;
5710;SDS011;61291;52.524;13.422;2022-08-01T14:10:59;60.10;;;55.70;;
5710;SDS011;61291;52.524;13.422;2022-08-01T14:13:27;57.67;;;53.13;;
5710;SDS011;61291;52.524;13.422;2022-08-01T14:15:53;57.03;;;52.50;;
5710;SDS011;61291;52.524;13.422;2022-08-01T14:18:19;58.20;;;53.60;;
5710;SDS011;61291;52.524;13.422;2022-08-01T14:20:44;58.23;;;53.37;;
5710;SDS011;61291;52.524;13.422;2022-08-01T14:23:10;55.40;;;51.00;;
5710;SDS011;61291;52.524;13.422;2022-08-01T14:25:36;57.20;;;53.00;;
5710;SDS011;61291;52.524;13.422;2022-08-01T14:28:03;55.97;;;51.60;;
5710;SDS011;61291;52.524;13.422;2022-08-01T14:30:29;56.17;;;51.77;;
5710;SDS011;61291;52.524;13.422;2022-08-01T14:32:54;56.53;;;52.20;;
5710;SDS011;61291;52.524;13.422;2022-08-01T14:35:20;57.50;;;53.00;;
5710;SDS011;61291;52.524;13.422;2022-08-01T14:37:45;61.27;;;56.60;;
5710;SDS011;61291;52.524;13.422;2022-08-01T14:40:11;65.53;;;60.60;;
5710;SDS011;61291;52.524;13.422;2022-08-01T14:42:38;55.30;;;51.00;;
5710;SDS011;61291;52.524;13.422;2022-08-01T14:45:04;55.33;;;51.03;;
5710;SDS011;61291;52.524;13.422;2022-08-01T14:47:33;56.00;;;51.90;;
5710;SDS011;61291;52.524;13.422;2022-08-01T14:50:00;56.10;;;51.90;;
5710;SDS011;61291;52.524;13.422;2022-08-01T14:52:25;53.50;;;49.10;;
5710;SDS011;61291;52.524;13.422;2022-08-01T14:54:51;58.00;;;53.50;;
5710;SDS011;61291;52.524;13.422;2022-08-01T14:57:16;58.87;;;54.77;;